createdAt,value
2019-01-21T00:00:12.755Z,82.35
2019-01-21T00:01:12.722Z,82.25
2019-01-21T00:02:12.723Z,82.35
2019-01-21T00:03:14.743Z,82.35
2019-01-21T00:04:12.688Z,82.56
2019-01-21T00:05:12.704Z,82.04
2019-01-21T00:06:12.670Z,81.83
2019-01-21T00:07:12.663Z,81.93
2019-01-21T00:08:12.642Z,81.93
2019-01-21T00:09:12.634Z,82.04
2019-01-21T00:10:12.670Z,82.07
2019-01-21T00:11:12.614Z,82.35
2019-01-21T00:12:12.621Z,82.04
2019-01-21T00:13:12.590Z,81.73
2019-01-21T00:14:12.580Z,82.04
2019-01-21T00:15:12.575Z,82.46
2019-01-21T00:16:12.580Z,82.04
2019-01-21T00:17:12.551Z,82.35
2019-01-21T00:18:12.541Z,82.29
2019-01-21T00:19:12.583Z,82.25
2019-01-21T00:20:12.517Z,82.18
2019-01-21T00:21:12.521Z,82.67
2019-01-21T00:22:12.509Z,82.56
2019-01-21T00:23:12.480Z,82.67
2019-01-21T00:24:12.491Z,82.53
2019-01-21T00:25:12.479Z,82.46
2019-01-21T00:26:12.473Z,82.46
2019-01-21T00:27:12.432Z,82.14
2019-01-21T00:28:12.452Z,82.04
2019-01-21T00:29:12.421Z,82.10
2019-01-21T00:30:12.432Z,81.58
2019-01-21T00:31:12.431Z,81.58
2019-01-21T00:32:12.375Z,81.27
2019-01-21T00:33:12.379Z,81.48
2019-01-21T00:34:12.358Z,81.90
2019-01-21T00:35:12.359Z,81.79
2019-01-21T00:36:12.368Z,81.69
2019-01-21T00:37:12.337Z,81.37
2019-01-21T00:38:12.328Z,81.27
2019-01-21T00:39:12.305Z,81.12
2019-01-21T00:40:12.298Z,81.12
2019-01-21T00:41:12.289Z,80.71
2019-01-21T00:42:12.293Z,80.49
2019-01-21T00:43:12.277Z,80.49
2019-01-21T00:44:12.247Z,80.60
2019-01-21T00:45:12.317Z,80.60
2019-01-21T00:46:12.238Z,80.49
2019-01-21T00:47:12.248Z,80.08
2019-01-21T00:48:12.216Z,80.18
2019-01-21T00:49:12.202Z,80.08
2019-01-21T00:50:12.201Z,80.29
2019-01-21T00:51:12.182Z,80.08
2019-01-21T00:52:12.175Z,79.83
2019-01-21T00:53:12.160Z,79.86
2019-01-21T00:54:12.146Z,79.52
2019-01-21T00:55:12.148Z,79.24
2019-01-21T00:56:12.119Z,79.13
2019-01-21T00:57:12.124Z,79.34
2019-01-21T00:58:12.094Z,79.66
2019-01-21T00:59:12.100Z,79.86
2019-01-21T01:00:12.076Z,80.22
2019-01-21T01:01:12.059Z,80.71
2019-01-21T01:02:12.069Z,80.39
2019-01-21T01:03:12.046Z,80.49
2019-01-21T01:04:12.033Z,80.49
2019-01-21T01:05:12.037Z,80.60
2019-01-21T01:06:12.018Z,80.49
2019-01-21T01:07:12.028Z,80.60
2019-01-21T01:08:12.003Z,80.39
2019-01-21T01:09:11.973Z,80.04
2019-01-21T01:10:11.965Z,79.72
2019-01-21T01:11:12.008Z,79.86
2019-01-21T01:12:11.944Z,79.72
2019-01-21T01:13:11.960Z,79.86
2019-01-21T01:14:11.928Z,79.97
2019-01-21T01:15:11.907Z,80.08
2019-01-21T01:16:11.914Z,79.76
2019-01-21T01:17:11.890Z,79.86
2019-01-21T01:18:11.898Z,79.86
2019-01-21T01:19:11.883Z,80.08
2019-01-21T01:20:11.862Z,79.97
2019-01-21T01:21:11.853Z,80.29
2019-01-21T01:22:11.858Z,80.95
2019-01-21T01:23:11.841Z,81.27
2019-01-21T01:24:11.819Z,81.83
2019-01-21T01:25:11.813Z,81.83
2019-01-21T01:26:11.794Z,82.25
2019-01-21T01:27:11.788Z,82.25
2019-01-21T01:28:11.800Z,81.93
2019-01-21T01:29:11.755Z,82.25
2019-01-21T01:30:11.751Z,82.18
2019-01-21T01:31:11.741Z,82.18
2019-01-21T01:32:11.758Z,82.07
2019-01-21T01:33:11.743Z,83.02
2019-01-21T01:34:11.709Z,82.71
2019-01-21T01:35:11.691Z,82.81
2019-01-21T01:36:11.683Z,82.50
2019-01-21T01:37:11.677Z,82.46
2019-01-21T01:38:11.661Z,82.56
2019-01-21T01:39:11.669Z,82.88
2019-01-21T01:40:11.637Z,82.46
2019-01-21T01:41:11.622Z,82.35
2019-01-21T01:42:11.625Z,81.93
2019-01-21T01:43:11.605Z,82.32
2019-01-21T01:44:11.614Z,81.93
2019-01-21T01:45:11.581Z,81.20
2019-01-21T01:46:11.577Z,81.41
2019-01-21T01:47:11.566Z,81.76
2019-01-21T01:48:11.554Z,82.60
2019-01-21T01:49:11.565Z,82.29
2019-01-21T01:50:11.532Z,82.64
2019-01-21T01:51:11.522Z,82.32
2019-01-21T01:52:11.516Z,82.85
2019-01-21T01:53:11.490Z,83.06
2019-01-21T01:54:11.519Z,83.37
2019-01-21T01:55:11.479Z,83.37
2019-01-21T01:56:11.470Z,84.11
2019-01-21T01:57:11.466Z,84.25
2019-01-21T01:58:11.440Z,84.25
2019-01-21T01:59:11.459Z,83.52
2019-01-21T02:00:11.424Z,83.73
2019-01-21T02:01:11.415Z,84.47
2019-01-21T02:02:11.417Z,84.47
2019-01-21T02:03:11.396Z,84.36
2019-01-21T02:04:11.403Z,84.67
2019-01-21T02:05:11.385Z,84.67
2019-01-21T02:06:11.364Z,84.57
2019-01-21T02:07:11.347Z,84.89
2019-01-21T02:08:11.332Z,84.67
2019-01-21T02:09:11.345Z,84.67
2019-01-21T02:10:11.320Z,84.36
2019-01-21T02:11:11.306Z,84.61
2019-01-21T02:12:11.292Z,84.61
2019-01-21T02:13:11.274Z,84.50
2019-01-21T02:14:11.268Z,84.36
2019-01-21T02:15:11.304Z,84.50
2019-01-21T02:16:11.262Z,84.47
2019-01-21T02:17:11.239Z,84.99
2019-01-21T02:18:11.248Z,84.99
2019-01-21T02:19:11.212Z,84.89
2019-01-21T02:20:11.225Z,84.64
2019-01-21T02:21:11.195Z,84.42
2019-01-21T02:22:11.203Z,83.59
2019-01-21T02:23:11.168Z,84.32
2019-01-21T02:24:11.242Z,83.69
2019-01-21T02:25:11.192Z,83.37
2019-01-21T02:26:11.164Z,82.95
2019-01-21T02:27:11.139Z,83.06
2019-01-21T02:28:11.121Z,83.54
2019-01-21T02:29:11.116Z,83.48
2019-01-21T02:30:11.114Z,83.17
2019-01-21T02:31:11.120Z,83.17
2019-01-21T02:32:11.076Z,83.80
2019-01-21T02:33:11.080Z,84.05
2019-01-21T02:34:11.052Z,83.83
2019-01-21T02:35:11.046Z,84.15
2019-01-21T02:36:11.051Z,84.36
2019-01-21T02:37:11.020Z,84.47
2019-01-21T02:38:11.006Z,84.67
2019-01-21T02:39:11.001Z,84.47
2019-01-21T02:40:10.997Z,84.89
2019-01-21T02:41:11.002Z,84.78
2019-01-21T02:42:10.961Z,84.89
2019-01-21T02:43:10.968Z,85.24
2019-01-21T02:44:10.942Z,85.13
2019-01-21T02:45:10.954Z,85.41
2019-01-21T02:46:10.951Z,85.13
2019-01-21T02:47:10.910Z,85.55
2019-01-21T02:48:10.896Z,86.19
2019-01-21T02:49:10.885Z,85.97
2019-01-21T02:50:10.895Z,85.97
2019-01-21T02:51:10.886Z,85.83
2019-01-21T02:52:10.873Z,86.25
2019-01-21T02:53:10.860Z,85.24
2019-01-21T02:54:10.840Z,85.31
2019-01-21T02:55:10.822Z,85.10
2019-01-21T02:56:10.822Z,85.10
2019-01-21T02:57:10.805Z,85.24
2019-01-21T02:58:10.801Z,85.52
2019-01-21T02:59:10.794Z,85.83
2019-01-21T03:00:10.774Z,86.25
2019-01-21T03:01:10.794Z,86.40
2019-01-21T03:02:10.747Z,86.29
2019-01-21T03:03:10.744Z,85.94
2019-01-21T03:04:10.728Z,86.19
2019-01-21T03:05:10.711Z,85.13
2019-01-21T03:06:10.707Z,84.25
2019-01-21T03:07:10.721Z,84.47
2019-01-21T03:08:10.679Z,84.47
2019-01-21T03:09:10.674Z,84.47
2019-01-21T03:10:10.661Z,84.15
2019-01-21T03:11:10.643Z,84.47
2019-01-21T03:12:10.662Z,84.47
2019-01-21T03:13:10.627Z,84.29
2019-01-21T03:14:10.621Z,84.40
2019-01-21T03:15:10.610Z,84.71
2019-01-21T03:16:10.604Z,85.03
2019-01-21T03:17:10.604Z,84.92
2019-01-21T03:18:10.581Z,85.38
2019-01-21T03:19:10.567Z,85.13
2019-01-21T03:20:10.577Z,86.29
2019-01-21T03:21:10.537Z,86.29
2019-01-21T03:22:10.572Z,86.29
2019-01-21T03:23:10.519Z,85.03
2019-01-21T03:24:10.538Z,85.24
2019-01-21T03:25:10.499Z,84.92
2019-01-21T03:26:10.510Z,85.03
2019-01-21T03:27:10.484Z,85.24
2019-01-21T03:28:10.470Z,85.49
2019-01-21T03:29:10.454Z,86.12
2019-01-21T03:30:10.460Z,86.33
2019-01-21T03:31:10.437Z,86.44
2019-01-21T03:32:10.457Z,86.22
2019-01-21T03:33:10.409Z,86.54
2019-01-21T03:34:10.408Z,86.12
2019-01-21T03:35:10.401Z,85.95
2019-01-21T03:36:10.383Z,86.02
2019-01-21T03:37:10.403Z,85.95
2019-01-21T03:38:10.354Z,86.12
2019-01-21T03:39:10.345Z,85.95
2019-01-21T03:40:10.349Z,86.44
2019-01-21T03:41:10.334Z,85.91
2019-01-21T03:42:10.337Z,86.12
2019-01-21T03:43:10.307Z,85.91
2019-01-21T03:44:10.308Z,86.12
2019-01-21T03:45:10.278Z,86.16
2019-01-21T03:46:10.267Z,86.22
2019-01-21T03:47:10.274Z,86.33
2019-01-21T03:48:16.530Z,86.44
2019-01-21T03:49:11.265Z,86.19
2019-01-21T03:50:10.249Z,86.22
2019-01-21T03:51:10.216Z,85.97
2019-01-21T03:52:10.225Z,85.97
2019-01-21T03:53:10.213Z,85.73
2019-01-21T03:54:10.187Z,85.31
2019-01-21T03:55:10.195Z,84.99
2019-01-21T03:56:10.182Z,84.53
2019-01-21T03:57:10.158Z,84.42
2019-01-21T03:58:10.154Z,84.11
2019-01-21T03:59:10.134Z,83.69
2019-01-21T04:00:10.124Z,82.75
2019-01-21T04:01:10.109Z,82.85
2019-01-21T04:02:10.122Z,82.85
2019-01-21T04:03:10.085Z,82.95
2019-01-21T04:04:10.088Z,83.48
2019-01-21T04:05:10.055Z,83.17
2019-01-21T04:06:10.056Z,83.37
2019-01-21T04:07:10.042Z,83.48
2019-01-21T04:08:10.053Z,83.80
2019-01-21T04:09:10.027Z,83.69
2019-01-21T04:10:10.010Z,83.80
2019-01-21T04:11:10.002Z,83.44
2019-01-21T04:12:09.987Z,83.27
2019-01-21T04:13:10.002Z,83.48
2019-01-21T04:14:09.966Z,82.85
2019-01-21T04:15:09.968Z,82.85
2019-01-21T04:16:09.937Z,82.75
2019-01-21T04:17:09.936Z,83.48
2019-01-21T04:18:09.944Z,83.69
2019-01-21T04:19:09.911Z,83.48
2019-01-21T04:20:09.904Z,83.48
2019-01-21T04:21:09.890Z,83.69
2019-01-21T04:22:09.881Z,83.69
2019-01-21T04:23:09.886Z,83.69
2019-01-21T04:24:09.869Z,83.13
2019-01-21T04:25:09.852Z,83.44
2019-01-21T04:26:09.835Z,83.34
2019-01-21T04:27:09.863Z,82.81
2019-01-21T04:28:09.825Z,82.81
2019-01-21T04:29:09.809Z,82.50
2019-01-21T04:30:09.803Z,82.35
2019-01-21T04:31:09.793Z,82.18
2019-01-21T04:32:09.780Z,82.35
2019-01-21T04:33:09.809Z,82.35
2019-01-21T04:34:09.765Z,81.73
2019-01-21T04:35:09.737Z,81.62
2019-01-21T04:36:09.723Z,81.37
2019-01-21T04:37:09.711Z,81.62
2019-01-21T04:38:09.729Z,81.20
2019-01-21T04:39:09.710Z,81.16
2019-01-21T04:40:09.714Z,81.05
2019-01-21T04:41:09.671Z,81.05
2019-01-21T04:42:09.658Z,80.53
2019-01-21T04:43:09.683Z,80.22
2019-01-21T04:44:09.636Z,80.00
2019-01-21T04:45:09.638Z,80.26
2019-01-21T04:46:09.613Z,80.00
2019-01-21T04:47:09.619Z,79.83
2019-01-21T04:48:09.595Z,80.04
2019-01-21T04:49:09.601Z,80.36
2019-01-21T04:50:09.592Z,80.11
2019-01-21T04:51:09.573Z,80.57
2019-01-21T04:52:09.543Z,80.46
2019-01-21T04:53:09.544Z,80.68
2019-01-21T04:54:09.569Z,80.68
2019-01-21T04:55:09.533Z,80.68
2019-01-21T04:56:09.509Z,80.78
2019-01-21T04:57:09.511Z,80.88
2019-01-21T04:58:09.479Z,81.09
2019-01-21T04:59:09.496Z,80.57
2019-01-21T05:00:09.463Z,80.78
2019-01-21T05:01:09.464Z,80.64
2019-01-21T05:02:09.439Z,80.78
2019-01-21T05:03:09.436Z,80.85
2019-01-21T05:04:09.453Z,80.78
2019-01-21T05:05:09.403Z,80.74
2019-01-21T05:06:09.403Z,80.22
2019-01-21T05:07:09.389Z,80.26
2019-01-21T05:08:09.393Z,80.00
2019-01-21T05:09:09.389Z,80.00
2019-01-21T05:10:09.352Z,80.15
2019-01-21T05:11:09.354Z,80.22
2019-01-21T05:12:09.348Z,80.22
2019-01-21T05:13:09.317Z,80.11
2019-01-21T05:14:09.326Z,80.15
2019-01-21T05:15:09.322Z,80.15
2019-01-21T05:16:09.290Z,80.68
2019-01-21T05:17:09.290Z,80.68
2019-01-21T05:18:09.264Z,80.64
2019-01-21T05:19:09.309Z,80.64
2019-01-21T05:20:09.405Z,80.53
2019-01-21T05:21:09.232Z,80.11
2019-01-21T05:22:09.231Z,79.80
2019-01-21T05:23:09.216Z,80.04
2019-01-21T05:24:09.244Z,80.15
2019-01-21T05:25:09.229Z,80.15
2019-01-21T05:26:09.192Z,80.71
2019-01-21T05:27:09.171Z,81.24
2019-01-21T05:28:09.166Z,81.38
2019-01-21T05:29:09.171Z,82.11
2019-01-21T05:30:09.174Z,82.01
2019-01-21T05:31:09.148Z,81.76
2019-01-21T05:32:09.194Z,81.87
2019-01-21T05:33:09.110Z,81.65
2019-01-21T05:34:09.120Z,81.65
2019-01-21T05:35:09.076Z,81.45
2019-01-21T05:36:09.077Z,81.65
2019-01-21T05:37:09.070Z,81.34
2019-01-21T05:38:09.066Z,81.45
2019-01-21T05:39:09.049Z,81.45
2019-01-21T05:40:09.027Z,81.34
2019-01-21T05:41:09.015Z,81.34
2019-01-21T05:42:09.019Z,81.45
2019-01-21T05:43:08.983Z,81.13
2019-01-21T05:44:09.019Z,80.82
2019-01-21T05:45:08.968Z,81.24
2019-01-21T05:46:08.970Z,81.24
2019-01-21T05:47:08.974Z,81.20
2019-01-21T05:48:08.962Z,80.92
2019-01-21T05:49:08.929Z,81.34
2019-01-21T05:50:08.938Z,81.45
2019-01-21T05:51:08.929Z,82.01
2019-01-21T05:52:08.910Z,81.65
2019-01-21T05:53:08.894Z,82.39
2019-01-21T05:54:08.901Z,81.97
2019-01-21T05:55:08.897Z,81.76
2019-01-21T05:56:08.859Z,81.41
2019-01-21T05:57:08.854Z,81.20
2019-01-21T05:58:08.827Z,80.50
2019-01-21T05:59:08.823Z,81.09
2019-01-21T06:00:08.816Z,80.99
2019-01-21T06:01:08.807Z,80.88
2019-01-21T06:02:08.783Z,80.78
2019-01-21T06:03:08.788Z,80.68
2019-01-21T06:04:08.767Z,80.88
2019-01-21T06:05:08.822Z,80.88
2019-01-21T06:06:08.749Z,80.78
2019-01-21T06:07:08.739Z,80.78
2019-01-21T06:08:08.738Z,80.78
2019-01-21T06:09:08.723Z,80.85
2019-01-21T06:10:08.727Z,80.99
2019-01-21T06:11:08.703Z,81.55
2019-01-21T06:12:08.683Z,81.65
2019-01-21T06:13:08.669Z,81.48
2019-01-21T06:14:08.726Z,82.07
2019-01-21T06:15:08.686Z,82.43
2019-01-21T06:16:08.646Z,82.01
2019-01-21T06:17:08.625Z,82.43
2019-01-21T06:18:08.607Z,82.43
2019-01-21T06:19:09.475Z,82.11
2019-01-21T06:20:08.597Z,82.53
2019-01-21T06:21:08.599Z,82.43
2019-01-21T06:22:08.573Z,82.75
2019-01-21T06:23:08.565Z,82.95
2019-01-21T06:24:08.567Z,82.75
2019-01-21T06:25:08.555Z,82.43
2019-01-21T06:26:08.543Z,82.07
2019-01-21T06:27:08.513Z,81.87
2019-01-21T06:28:08.682Z,81.55
2019-01-21T06:29:08.504Z,81.24
2019-01-21T06:30:08.486Z,81.13
2019-01-21T06:31:08.483Z,81.13
2019-01-21T06:32:08.457Z,81.34
2019-01-21T06:33:08.453Z,81.76
2019-01-21T06:34:08.456Z,81.65
2019-01-21T06:35:08.432Z,81.45
2019-01-21T06:36:08.494Z,81.55
2019-01-21T06:37:08.412Z,81.76
2019-01-21T06:38:08.430Z,81.45
2019-01-21T06:39:08.396Z,81.65
2019-01-21T06:40:08.398Z,81.65
2019-01-21T06:41:08.380Z,81.41
2019-01-21T06:42:08.366Z,81.09
2019-01-21T06:43:08.352Z,81.41
2019-01-21T06:44:08.339Z,81.09
2019-01-21T06:45:08.366Z,80.95
2019-01-21T06:46:08.347Z,80.74
2019-01-21T06:47:08.318Z,80.78
2019-01-21T06:48:08.296Z,80.57
2019-01-21T06:49:08.278Z,80.46
2019-01-21T06:50:08.553Z,80.57
2019-01-21T06:51:08.260Z,80.88
2019-01-21T06:52:08.291Z,80.68
2019-01-21T06:53:08.293Z,80.46
2019-01-21T06:54:08.224Z,80.68
2019-01-21T06:55:08.219Z,80.22
2019-01-21T06:56:08.194Z,79.90
2019-01-21T06:57:08.204Z,79.80
2019-01-21T06:58:08.191Z,79.38
2019-01-21T06:59:08.177Z,79.27
2019-01-21T07:00:08.153Z,79.38
2019-01-21T07:01:08.141Z,79.17
2019-01-21T07:02:08.155Z,79.27
2019-01-21T07:03:08.125Z,78.85
2019-01-21T07:04:08.115Z,79.06
2019-01-21T07:05:08.118Z,79.03
2019-01-21T07:06:08.095Z,78.75
2019-01-21T07:07:08.101Z,79.06
2019-01-21T07:08:08.069Z,78.85
2019-01-21T07:09:08.063Z,79.17
2019-01-21T07:10:08.039Z,78.96
2019-01-21T07:11:08.032Z,79.17
2019-01-21T07:12:08.039Z,79.03
2019-01-21T07:13:08.001Z,79.17
2019-01-21T07:14:07.997Z,78.81
2019-01-21T07:15:07.985Z,79.24
2019-01-21T07:16:07.983Z,79.66
2019-01-21T07:17:07.991Z,79.44
2019-01-21T07:18:07.967Z,79.13
2019-01-21T07:19:11.064Z,78.92
2019-01-21T07:20:07.944Z,78.71
2019-01-21T07:21:07.924Z,79.13
2019-01-21T07:22:07.929Z,78.81
2019-01-21T07:23:07.929Z,78.61
2019-01-21T07:24:07.924Z,78.92
2019-01-21T07:25:07.884Z,78.92
2019-01-21T07:26:07.872Z,78.92
2019-01-21T07:27:07.855Z,78.96
2019-01-21T07:28:07.865Z,79.06
2019-01-21T07:29:07.862Z,78.81
2019-01-21T07:30:07.855Z,78.92
2019-01-21T07:31:07.812Z,78.92
2019-01-21T07:32:07.817Z,78.92
2019-01-21T07:33:07.823Z,79.24
2019-01-21T07:34:07.796Z,79.27
2019-01-21T07:35:07.769Z,79.24
2019-01-21T07:36:07.750Z,79.13
2019-01-21T07:37:07.778Z,79.24
2019-01-21T07:38:07.738Z,78.81
2019-01-21T07:39:07.742Z,78.92
2019-01-21T07:40:07.786Z,78.92
2019-01-21T07:41:07.720Z,79.27
2019-01-21T07:42:07.697Z,79.24
2019-01-21T07:43:07.681Z,79.44
2019-01-21T07:44:07.682Z,79.48
2019-01-21T07:45:07.664Z,79.34
2019-01-21T07:46:07.645Z,79.44
2019-01-21T07:47:07.644Z,79.55
2019-01-21T07:48:07.625Z,78.92
2019-01-21T07:49:07.645Z,78.71
2019-01-21T07:50:07.609Z,79.13
2019-01-21T07:51:07.588Z,78.75
2019-01-21T07:52:07.587Z,79.13
2019-01-21T07:53:07.612Z,79.48
2019-01-21T07:54:07.564Z,79.55
2019-01-21T07:55:07.563Z,79.24
2019-01-21T07:56:07.543Z,79.13
2019-01-21T07:57:07.524Z,78.92
2019-01-21T07:58:07.518Z,78.81
2019-01-21T07:59:07.513Z,78.50
2019-01-21T08:00:07.519Z,78.47
2019-01-21T08:01:07.492Z,78.47
2019-01-21T08:02:07.478Z,78.39
2019-01-21T08:03:07.484Z,78.39
2019-01-21T08:04:07.462Z,78.61
2019-01-21T08:05:07.457Z,78.36
2019-01-21T08:06:07.436Z,78.71
2019-01-21T08:07:07.424Z,78.89
2019-01-21T08:08:07.412Z,78.92
2019-01-21T08:09:07.396Z,78.29
2019-01-21T08:10:07.463Z,78.39
2019-01-21T08:11:07.382Z,78.39
2019-01-21T08:12:07.363Z,78.08
2019-01-21T08:13:07.347Z,78.15
2019-01-21T08:14:08.066Z,78.19
2019-01-21T08:15:07.332Z,78.61
2019-01-21T08:16:07.353Z,78.78
2019-01-21T08:17:07.317Z,78.78
2019-01-21T08:18:07.305Z,79.10
2019-01-21T08:19:07.310Z,78.99
2019-01-21T08:20:07.363Z,79.20
2019-01-21T08:21:07.284Z,78.67
2019-01-21T08:22:07.254Z,78.92
2019-01-21T08:23:07.252Z,78.67
2019-01-21T08:24:07.230Z,78.67
2019-01-21T08:25:07.228Z,78.99
2019-01-21T08:26:07.233Z,78.67
2019-01-21T08:27:07.207Z,78.78
2019-01-21T08:28:07.189Z,78.89
2019-01-21T08:29:07.188Z,78.47
2019-01-21T08:30:07.171Z,78.25
2019-01-21T08:31:07.172Z,78.01
2019-01-21T08:32:07.158Z,78.25
2019-01-21T08:33:07.139Z,78.33
2019-01-21T08:34:07.126Z,78.05
2019-01-21T08:35:07.215Z,78.01
2019-01-21T08:36:07.313Z,77.59
2019-01-21T08:37:07.103Z,77.48
2019-01-21T08:38:07.145Z,77.59
2019-01-21T08:39:07.092Z,77.70
2019-01-21T08:40:07.077Z,77.70
2019-01-21T08:41:07.106Z,77.17
2019-01-21T08:42:07.064Z,77.07
2019-01-21T08:43:07.025Z,76.43
2019-01-21T08:44:07.101Z,76.65
2019-01-21T08:45:07.025Z,77.07
2019-01-21T08:46:06.992Z,76.65
2019-01-21T08:47:07.005Z,76.75
2019-01-21T08:48:06.982Z,76.75
2019-01-21T08:49:06.963Z,77.07
2019-01-21T08:50:06.953Z,77.07
2019-01-21T08:51:06.939Z,77.17
2019-01-21T08:52:06.941Z,77.17
2019-01-21T08:53:06.931Z,77.38
2019-01-21T08:54:06.912Z,77.17
2019-01-21T08:55:06.914Z,76.65
2019-01-21T08:56:06.885Z,76.65
2019-01-21T08:57:06.908Z,77.17
2019-01-21T08:58:06.861Z,77.28
2019-01-21T08:59:06.860Z,77.07
2019-01-21T09:00:06.858Z,76.96
2019-01-21T09:01:06.828Z,77.28
2019-01-21T09:02:06.847Z,77.17
2019-01-21T09:03:06.877Z,76.96
2019-01-21T09:04:06.796Z,77.17
2019-01-21T09:05:06.809Z,76.86
2019-01-21T09:06:06.813Z,77.07
2019-01-21T09:07:06.759Z,77.28
2019-01-21T09:08:06.779Z,77.17
2019-01-21T09:09:06.753Z,76.75
2019-01-21T09:10:06.744Z,76.54
2019-01-21T09:11:06.727Z,76.96
2019-01-21T09:12:06.727Z,77.17
2019-01-21T09:13:06.722Z,77.28
2019-01-21T09:14:06.691Z,77.07
2019-01-21T09:15:06.713Z,77.17
2019-01-21T09:16:06.671Z,76.54
2019-01-21T09:17:06.668Z,76.75
2019-01-21T09:18:06.678Z,76.96
2019-01-21T09:19:06.654Z,77.17
2019-01-21T09:20:10.679Z,77.17
2019-01-21T09:21:06.622Z,77.17
2019-01-21T09:22:06.645Z,77.28
2019-01-21T09:23:06.637Z,76.75
2019-01-21T09:24:06.590Z,76.96
2019-01-21T09:25:06.570Z,77.17
2019-01-21T09:26:06.576Z,77.28
2019-01-21T09:27:06.576Z,76.54
2019-01-21T09:28:06.549Z,77.38
2019-01-21T09:29:06.563Z,77.17
2019-01-21T09:30:06.512Z,77.17
2019-01-21T09:31:06.513Z,77.28
2019-01-21T09:32:06.512Z,76.43
2019-01-21T09:33:06.492Z,77.17
2019-01-21T09:34:06.494Z,77.07
2019-01-21T09:35:06.467Z,76.65
2019-01-21T09:36:06.449Z,77.07
2019-01-21T09:37:06.436Z,77.38
2019-01-21T09:38:06.429Z,77.17
2019-01-21T09:39:06.456Z,77.45
2019-01-21T09:40:06.424Z,77.03
2019-01-21T09:41:06.421Z,76.86
2019-01-21T09:42:06.384Z,76.54
2019-01-21T09:43:06.384Z,77.17
2019-01-21T09:44:06.360Z,77.17
2019-01-21T09:45:06.448Z,77.24
2019-01-21T09:46:06.394Z,76.93
2019-01-21T09:47:06.351Z,76.72
2019-01-21T09:48:06.319Z,77.03
2019-01-21T09:49:06.314Z,76.40
2019-01-21T09:50:06.319Z,76.40
2019-01-21T09:51:06.285Z,76.43
2019-01-21T09:52:06.280Z,76.43
2019-01-21T09:53:06.267Z,76.96
2019-01-21T09:54:06.261Z,77.17
2019-01-21T09:55:06.267Z,77.24
2019-01-21T09:56:06.231Z,77.17
2019-01-21T09:57:06.219Z,77.14
2019-01-21T09:58:06.216Z,77.14
2019-01-21T09:59:06.217Z,76.61
2019-01-21T10:00:06.226Z,77.45
2019-01-21T10:01:06.176Z,76.61
2019-01-21T10:02:06.183Z,76.40
2019-01-21T10:03:06.154Z,76.82
2019-01-21T10:04:06.153Z,75.56
2019-01-21T10:05:06.163Z,75.88
2019-01-21T10:06:06.117Z,75.88
2019-01-21T10:07:07.275Z,75.78
2019-01-21T10:08:06.115Z,75.88
2019-01-21T10:09:06.098Z,75.15
2019-01-21T10:10:06.102Z,75.15
2019-01-21T10:11:06.092Z,75.04
2019-01-21T10:12:06.078Z,75.88
2019-01-21T10:13:06.060Z,75.15
2019-01-21T10:14:06.040Z,75.88
2019-01-21T10:15:06.068Z,75.63
2019-01-21T10:16:06.007Z,75.95
2019-01-21T10:17:06.012Z,75.01
2019-01-21T10:18:05.992Z,75.11
2019-01-21T10:19:06.002Z,75.43
2019-01-21T10:20:05.967Z,74.80
2019-01-21T10:21:05.972Z,74.48
2019-01-21T10:22:05.948Z,74.69
2019-01-21T10:23:05.980Z,74.38
2019-01-21T10:24:05.932Z,74.58
2019-01-21T10:25:05.924Z,74.48
2019-01-21T10:26:05.968Z,74.69
2019-01-21T10:27:05.904Z,75.21
2019-01-21T10:28:05.888Z,75.21
2019-01-21T10:29:05.922Z,75.21
2019-01-21T10:30:05.874Z,75.43
2019-01-21T10:31:05.862Z,75.63
2019-01-21T10:32:05.848Z,75.43
2019-01-21T10:33:05.840Z,75.32
2019-01-21T10:34:05.811Z,75.11
2019-01-21T10:35:05.802Z,75.43
2019-01-21T10:36:05.802Z,75.11
2019-01-21T10:37:05.795Z,75.32
2019-01-21T10:38:05.768Z,75.11
2019-01-21T10:39:05.759Z,75.11
2019-01-21T10:40:08.001Z,75.08
2019-01-21T10:41:05.742Z,74.87
2019-01-21T10:42:05.752Z,74.90
2019-01-21T10:43:05.727Z,74.87
2019-01-21T10:44:05.716Z,75.08
2019-01-21T10:45:05.718Z,74.34
2019-01-21T10:46:05.690Z,73.61
2019-01-21T10:47:05.749Z,74.45
2019-01-21T10:48:05.668Z,73.96
2019-01-21T10:49:05.646Z,74.45
2019-01-21T10:50:05.638Z,74.34
2019-01-21T10:51:05.630Z,74.24
2019-01-21T10:52:05.635Z,74.34
2019-01-21T10:53:05.606Z,74.34
2019-01-21T10:54:05.606Z,74.34
2019-01-21T10:55:05.590Z,73.50
2019-01-21T10:56:05.590Z,73.96
2019-01-21T10:57:05.586Z,73.44
2019-01-21T10:58:05.565Z,74.27
2019-01-21T10:59:05.546Z,74.45
2019-01-21T11:00:05.540Z,74.76
2019-01-21T11:01:05.529Z,74.24
2019-01-21T11:02:05.533Z,73.54
2019-01-21T11:03:05.500Z,74.45
2019-01-21T11:04:05.492Z,74.58
2019-01-21T11:05:05.478Z,73.61
2019-01-21T11:06:05.462Z,73.50
2019-01-21T11:07:05.474Z,74.13
2019-01-21T11:08:05.446Z,74.13
2019-01-21T11:09:05.432Z,73.50
2019-01-21T11:10:05.431Z,73.30
2019-01-21T11:11:05.422Z,73.09
2019-01-21T11:12:05.429Z,73.30
2019-01-21T11:13:05.397Z,73.44
2019-01-21T11:14:05.386Z,73.30
2019-01-21T11:15:05.392Z,73.40
2019-01-21T11:16:05.383Z,73.82
2019-01-21T11:17:05.343Z,74.45
2019-01-21T11:18:05.350Z,74.55
2019-01-21T11:19:05.325Z,73.61
2019-01-21T11:20:05.331Z,73.72
2019-01-21T11:21:05.294Z,74.24
2019-01-21T11:22:05.300Z,74.03
2019-01-21T11:23:06.305Z,73.61
2019-01-21T11:24:05.264Z,73.47
2019-01-21T11:25:05.261Z,73.40
2019-01-21T11:26:05.261Z,73.40
2019-01-21T11:27:05.232Z,73.30
2019-01-21T11:28:05.254Z,73.40
2019-01-21T11:29:05.218Z,73.40
2019-01-21T11:30:05.203Z,73.61
2019-01-21T11:31:05.196Z,73.40
2019-01-21T11:32:05.184Z,73.50
2019-01-21T11:33:05.200Z,73.40
2019-01-21T11:34:05.161Z,73.50
2019-01-21T11:35:05.146Z,74.24
2019-01-21T11:36:05.148Z,74.13
2019-01-21T11:37:05.124Z,74.13
2019-01-21T11:38:05.137Z,74.24
2019-01-21T11:39:05.134Z,74.24
2019-01-21T11:40:05.095Z,74.13
2019-01-21T11:41:05.077Z,74.24
2019-01-21T11:42:05.073Z,74.24
2019-01-21T11:43:05.086Z,74.13
2019-01-21T11:44:05.055Z,74.24
2019-01-21T11:45:05.045Z,74.45
2019-01-21T11:46:05.024Z,73.50
2019-01-21T11:47:05.036Z,73.09
2019-01-21T11:48:05.016Z,73.50
2019-01-21T11:49:05.005Z,73.40
2019-01-21T11:50:10.495Z,73.30
2019-01-21T11:51:05.975Z,73.82
2019-01-21T11:52:04.959Z,74.17
2019-01-21T11:53:04.976Z,74.45
2019-01-21T11:54:04.946Z,74.58
2019-01-21T11:55:04.940Z,73.54
2019-01-21T11:56:04.918Z,74.58
2019-01-21T11:57:04.906Z,75.11
2019-01-21T11:58:04.898Z,75.11
2019-01-21T11:59:04.921Z,75.21
2019-01-21T12:00:04.885Z,74.58
2019-01-21T12:01:04.889Z,74.27
2019-01-21T12:02:04.854Z,74.58
2019-01-21T12:03:04.843Z,74.48
2019-01-21T12:04:04.861Z,74.48
2019-01-21T12:05:04.825Z,74.48
2019-01-21T12:06:04.814Z,74.69
2019-01-21T12:07:04.799Z,74.48
2019-01-21T12:08:04.782Z,74.69
2019-01-21T12:09:04.801Z,74.69
2019-01-21T12:10:04.763Z,74.48
2019-01-21T12:11:06.004Z,74.27
2019-01-21T12:12:04.742Z,74.48
2019-01-21T12:13:04.727Z,74.38
2019-01-21T12:14:04.740Z,74.58
2019-01-21T12:15:04.728Z,74.38
2019-01-21T12:16:04.691Z,73.96
2019-01-21T12:17:04.688Z,74.06
2019-01-21T12:18:04.679Z,73.44
2019-01-21T12:19:04.680Z,74.58
2019-01-21T12:20:04.669Z,74.58
2019-01-21T12:21:04.647Z,74.38
2019-01-21T12:22:04.633Z,74.58
2019-01-21T12:23:04.613Z,74.58
2019-01-21T12:24:04.647Z,74.58
2019-01-21T12:25:04.610Z,74.69
2019-01-21T12:26:04.588Z,74.90
2019-01-21T12:27:04.569Z,74.69
2019-01-21T12:28:04.575Z,74.03
2019-01-21T12:29:04.571Z,73.61
2019-01-21T12:30:04.544Z,74.24
2019-01-21T12:31:04.544Z,74.34
2019-01-21T12:32:04.516Z,74.34
2019-01-21T12:33:04.511Z,73.75
2019-01-21T12:34:04.536Z,74.17
2019-01-21T12:35:04.519Z,74.17
2019-01-21T12:36:04.478Z,74.48
2019-01-21T12:37:04.474Z,73.96
2019-01-21T12:38:04.465Z,74.27
2019-01-21T12:39:04.455Z,74.38
2019-01-21T12:40:04.461Z,74.90
2019-01-21T12:41:04.421Z,75.01
2019-01-21T12:42:04.434Z,74.69
2019-01-21T12:43:04.403Z,74.69
2019-01-21T12:44:04.412Z,74.38
2019-01-21T12:45:04.413Z,74.30
2019-01-21T12:46:04.365Z,75.15
2019-01-21T12:47:04.362Z,75.67
2019-01-21T12:48:04.349Z,75.11
2019-01-21T12:49:04.332Z,75.74
2019-01-21T12:50:04.362Z,75.01
2019-01-21T12:51:04.318Z,75.53
2019-01-21T12:52:04.321Z,75.43